Aeroporto :
LOGIN :

Iscrizione | Disclaimer

   EN    FR    IT 

 










Sommario :    VFR   VFR Marginale   IFR   IFR Intensivo   IFR Molto Intensivo
Visibilità : 
Base nubi : 
>= 8 km
>= 3000ft
5 / 8 km
1000 / 3000 ft
1500m / 5 km
500 / 1000 ft
800 / 1500m
200 / 500 ft
< 800m
< 200 ft
Simboli :   Temporali  Nebbia  Neve Forte  Precipitazioni Forti  Vento > 20 kt
SIGMETs :   Varie  Temporali  Ghiacco  Turbolenza  Onda orograficha  Ceneri Vulcaniche






- Altitudine del aeroporto : 195 ft


LFMY - Salon de Provence

ULTIMO METAR :
  • 271130Z AUTO 32014KT 280V340 CAVOK 20/06 Q1008 BECMG 33018G30KT

METARs OBSOLETI :
  • 271100Z AUTO 33015KT 290V350 CAVOK 20/06 Q1008 TEMPO 33020G30KT
  • 271030Z AUTO 31012KT 270V340 9999 BKN049 19/07 Q1008 BECMG 33018G30KT
  • 271000Z AUTO 31012KT 260V340 9999 BKN045 BKN052 18/08 Q1008 BECMG 33018G30KT
  • 270930Z AUTO 31013G24KT 280V340 9999 FEW045 SCT052 17/07 Q1008 NOSIG
  • 270900Z AUTO 31015G25KT 270V350 9999 FEW040 18/08 Q1007 NOSIG

TAF TAF LFMY
Valido dal 27 a 09 ore il 28 a 09 ore UTC


270800Z 2709/2809 33015G25KT CAVOK TX21/2713Z TN12/2805Z
TEMPO 2709/2715 33020G30KT
BECMG 2718/2720 28008KT



MetMap, La meteo Aeronautica in un colpo d'occhio ! - Copyright ORBIFLY Dicembre 2007 - Disclaimer

ORBIFLY MET'MAP TEAM :

Programmazione e sviluppo : Alexandra Zaïnal
Concezione : Baudouin d'Aumeries
Supporto tecnico e logistico : Manuel Goepfert
Aiuto : Marc-Olivier Méhu
Aiuto per la traduzione : Arnaldo La Scala




FONTI E CREDITI :

   NOAA